sensor_id;sensor_type;location;lat;lon;timestamp;temperature;humidity
9219;DHT22;4644;48.858;9.184;2023-04-19T00:01:30;9.60;99.90
9219;DHT22;4644;48.858;9.184;2023-04-19T00:03:59;9.50;99.90
9219;DHT22;4644;48.858;9.184;2023-04-19T00:06:27;9.50;99.90
9219;DHT22;4644;48.858;9.184;2023-04-19T00:08:55;9.50;99.90
9219;DHT22;4644;48.858;9.184;2023-04-19T00:11:22;9.50;99.90
9219;DHT22;4644;48.858;9.184;2023-04-19T00:13:49;9.50;99.90
9219;DHT22;4644;48.858;9.184;2023-04-19T00:16:16;9.50;99.90
9219;DHT22;4644;48.858;9.184;2023-04-19T00:18:43;9.50;99.90
9219;DHT22;4644;48.858;9.184;2023-04-19T00:21:12;9.50;99.90
9219;DHT22;4644;48.858;9.184;2023-04-19T00:23:39;9.50;99.90
9219;DHT22;4644;48.858;9.184;2023-04-19T00:26:06;9.50;99.90
9219;DHT22;4644;48.858;9.184;2023-04-19T00:28:36;9.50;99.90
9219;DHT22;4644;48.858;9.184;2023-04-19T00:31:03;9.50;99.90
9219;DHT22;4644;48.858;9.184;2023-04-19T00:33:32;9.50;99.90
9219;DHT22;4644;48.858;9.184;2023-04-19T00:35:59;9.50;99.90
9219;DHT22;4644;48.858;9.184;2023-04-19T00:38:27;9.50;99.90
9219;DHT22;4644;48.858;9.184;2023-04-19T00:40:54;9.50;99.90
9219;DHT22;4644;48.858;9.184;2023-04-19T00:43:21;9.50;99.90
9219;DHT22;4644;48.858;9.184;2023-04-19T00:45:48;9.50;99.90
9219;DHT22;4644;48.858;9.184;2023-04-19T00:48:16;9.50;99.90
9219;DHT22;4644;48.858;9.184;2023-04-19T00:50:44;9.50;99.90
9219;DHT22;4644;48.858;9.184;2023-04-19T00:53:11;9.50;99.90
9219;DHT22;4644;48.858;9.184;2023-04-19T00:55:40;9.50;99.90
9219;DHT22;4644;48.858;9.184;2023-04-19T00:58:08;9.50;99.90
9219;DHT22;4644;48.858;9.184;2023-04-19T01:00:36;9.50;99.90
9219;DHT22;4644;48.858;9.184;2023-04-19T01:03:02;9.50;99.90
9219;DHT22;4644;48.858;9.184;2023-04-19T01:05:32;9.40;99.90
9219;DHT22;4644;48.858;9.184;2023-04-19T01:07:59;9.50;99.90
9219;DHT22;4644;48.858;9.184;2023-04-19T01:10:26;9.50;99.90
9219;DHT22;4644;48.858;9.184;2023-04-19T01:12:55;9.50;99.90
9219;DHT22;4644;48.858;9.184;2023-04-19T01:15:22;9.50;99.90
9219;DHT22;4644;48.858;9.184;2023-04-19T01:17:49;9.40;99.90
9219;DHT22;4644;48.858;9.184;2023-04-19T01:20:16;9.40;99.90
9219;DHT22;4644;48.858;9.184;2023-04-19T01:22:45;9.40;99.90
9219;DHT22;4644;48.858;9.184;2023-04-19T01:25:12;9.40;99.90
9219;DHT22;4644;48.858;9.184;2023-04-19T01:27:39;9.50;99.90
9219;DHT22;4644;48.858;9.184;2023-04-19T01:30:07;9.50;99.90
9219;DHT22;4644;48.858;9.184;2023-04-19T01:32:34;9.40;99.90
9219;DHT22;4644;48.858;9.184;2023-04-19T01:35:02;9.40;99.90
9219;DHT22;4644;48.858;9.184;2023-04-19T01:37:30;9.50;99.90
9219;DHT22;4644;48.858;9.184;2023-04-19T01:39:58;9.40;99.90
9219;DHT22;4644;48.858;9.184;2023-04-19T01:42:25;9.40;99.90
9219;DHT22;4644;48.858;9.184;2023-04-19T01:44:52;9.30;99.90
9219;DHT22;4644;48.858;9.184;2023-04-19T01:47:20;9.40;99.90
9219;DHT22;4644;48.858;9.184;2023-04-19T01:49:47;9.30;99.90
9219;DHT22;4644;48.858;9.184;2023-04-19T01:52:14;9.30;99.90
9219;DHT22;4644;48.858;9.184;2023-04-19T01:54:41;9.30;99.90
9219;DHT22;4644;48.858;9.184;2023-04-19T01:57:09;9.30;99.90
9219;DHT22;4644;48.858;9.184;2023-04-19T01:59:36;9.30;99.90
9219;DHT22;4644;48.858;9.184;2023-04-19T02:02:05;9.30;99.90
9219;DHT22;4644;48.858;9.184;2023-04-19T02:04:33;9.30;99.90
9219;DHT22;4644;48.858;9.184;2023-04-19T02:07:00;9.30;99.90
9219;DHT22;4644;48.858;9.184;2023-04-19T02:09:28;9.20;99.90
9219;DHT22;4644;48.858;9.184;2023-04-19T02:11:55;9.30;99.90
9219;DHT22;4644;48.858;9.184;2023-04-19T02:14:23;9.20;99.90
9219;DHT22;4644;48.858;9.184;2023-04-19T02:16:51;9.20;99.90
9219;DHT22;4644;48.858;9.184;2023-04-19T02:19:18;9.20;99.90
9219;DHT22;4644;48.858;9.184;2023-04-19T02:21:44;9.30;99.90
9219;DHT22;4644;48.858;9.184;2023-04-19T02:24:12;9.30;99.90
9219;DHT22;4644;48.858;9.184;2023-04-19T02:26:39;9.30;99.90
9219;DHT22;4644;48.858;9.184;2023-04-19T02:29:06;9.20;99.90
9219;DHT22;4644;48.858;9.184;2023-04-19T02:31:35;9.20;99.90
9219;DHT22;4644;48.858;9.184;2023-04-19T02:34:02;9.20;99.90
9219;DHT22;4644;48.858;9.184;2023-04-19T02:36:29;9.20;99.90
9219;DHT22;4644;48.858;9.184;2023-04-19T02:38:56;9.30;99.90
9219;DHT22;4644;48.858;9.184;2023-04-19T02:41:24;9.30;99.90
9219;DHT22;4644;48.858;9.184;2023-04-19T02:43:51;9.30;99.90
9219;DHT22;4644;48.858;9.184;2023-04-19T02:46:18;9.30;99.90
9219;DHT22;4644;48.858;9.184;2023-04-19T02:48:46;9.40;99.90
9219;DHT22;4644;48.858;9.184;2023-04-19T02:51:14;9.40;99.90
9219;DHT22;4644;48.858;9.184;2023-04-19T02:53:42;9.30;99.90
9219;DHT22;4644;48.858;9.184;2023-04-19T02:56:09;9.30;99.90
9219;DHT22;4644;48.858;9.184;2023-04-19T02:58:36;9.30;99.90
9219;DHT22;4644;48.858;9.184;2023-04-19T03:01:03;9.30;99.90
9219;DHT22;4644;48.858;9.184;2023-04-19T03:03:30;9.30;99.90
9219;DHT22;4644;48.858;9.184;2023-04-19T03:05:58;9.30;99.90
9219;DHT22;4644;48.858;9.184;2023-04-19T03:08:25;9.30;99.90
9219;DHT22;4644;48.858;9.184;2023-04-19T03:10:52;9.20;99.90
9219;DHT22;4644;48.858;9.184;2023-04-19T03:13:19;9.30;99.90
9219;DHT22;4644;48.858;9.184;2023-04-19T03:15:47;9.20;99.90
9219;DHT22;4644;48.858;9.184;2023-04-19T03:18:14;9.20;99.90
9219;DHT22;4644;48.858;9.184;2023-04-19T03:20:41;9.20;99.90
9219;DHT22;4644;48.858;9.184;2023-04-19T03:23:09;9.20;99.90
9219;DHT22;4644;48.858;9.184;2023-04-19T03:25:36;9.20;99.90
9219;DHT22;4644;48.858;9.184;2023-04-19T03:28:04;9.20;99.90
9219;DHT22;4644;48.858;9.184;2023-04-19T03:30:31;9.20;99.90
9219;DHT22;4644;48.858;9.184;2023-04-19T03:32:58;9.20;99.90
9219;DHT22;4644;48.858;9.184;2023-04-19T03:35:25;9.20;99.90
9219;DHT22;4644;48.858;9.184;2023-04-19T03:37:54;9.10;99.90
9219;DHT22;4644;48.858;9.184;2023-04-19T03:40:22;9.20;99.90
9219;DHT22;4644;48.858;9.184;2023-04-19T03:42:49;9.10;99.90
9219;DHT22;4644;48.858;9.184;2023-04-19T03:45:16;9.10;99.90
9219;DHT22;4644;48.858;9.184;2023-04-19T03:47:43;9.20;99.90
9219;DHT22;4644;48.858;9.184;2023-04-19T03:50:10;9.10;99.90
9219;DHT22;4644;48.858;9.184;2023-04-19T03:52:37;9.10;99.90
9219;DHT22;4644;48.858;9.184;2023-04-19T03:55:05;9.10;99.90
9219;DHT22;4644;48.858;9.184;2023-04-19T03:57:33;9.00;99.90
9219;DHT22;4644;48.858;9.184;2023-04-19T04:00:00;9.00;99.90
9219;DHT22;4644;48.858;9.184;2023-04-19T04:02:31;9.00;99.90
9219;DHT22;4644;48.858;9.184;2023-04-19T04:04:58;9.00;99.90
9219;DHT22;4644;48.858;9.184;2023-04-19T04:07:25;8.90;99.90
9219;DHT22;4644;48.858;9.184;2023-04-19T04:09:52;8.90;99.90
9219;DHT22;4644;48.858;9.184;2023-04-19T04:12:19;8.90;99.90
9219;DHT22;4644;48.858;9.184;2023-04-19T04:14:48;8.90;99.90
9219;DHT22;4644;48.858;9.184;2023-04-19T04:17:14;8.80;99.90
9219;DHT22;4644;48.858;9.184;2023-04-19T04:19:41;8.80;99.90
9219;DHT22;4644;48.858;9.184;2023-04-19T04:22:08;8.70;99.90
9219;DHT22;4644;48.858;9.184;2023-04-19T04:24:37;8.70;99.90
9219;DHT22;4644;48.858;9.184;2023-04-19T04:27:08;8.80;99.90
9219;DHT22;4644;48.858;9.184;2023-04-19T04:29:35;8.70;99.90
9219;DHT22;4644;48.858;9.184;2023-04-19T04:32:05;8.70;99.90
9219;DHT22;4644;48.858;9.184;2023-04-19T04:34:32;8.60;99.90
9219;DHT22;4644;48.858;9.184;2023-04-19T04:37:00;8.60;99.90
9219;DHT22;4644;48.858;9.184;2023-04-19T04:39:28;8.60;99.90
9219;DHT22;4644;48.858;9.184;2023-04-19T04:41:55;8.50;99.90
9219;DHT22;4644;48.858;9.184;2023-04-19T04:44:24;8.50;99.90
9219;DHT22;4644;48.858;9.184;2023-04-19T04:46:52;8.50;99.90
9219;DHT22;4644;48.858;9.184;2023-04-19T04:49:20;8.50;99.90
9219;DHT22;4644;48.858;9.184;2023-04-19T04:51:47;8.40;99.90
9219;DHT22;4644;48.858;9.184;2023-04-19T04:54:14;8.50;99.90
9219;DHT22;4644;48.858;9.184;2023-04-19T04:56:41;8.50;99.90
9219;DHT22;4644;48.858;9.184;2023-04-19T04:59:08;8.60;99.90
9219;DHT22;4644;48.858;9.184;2023-04-19T05:01:35;8.60;99.90
9219;DHT22;4644;48.858;9.184;2023-04-19T05:04:03;8.60;99.90
9219;DHT22;4644;48.858;9.184;2023-04-19T05:06:31;8.60;99.90
9219;DHT22;4644;48.858;9.184;2023-04-19T05:08:58;8.70;99.90
9219;DHT22;4644;48.858;9.184;2023-04-19T05:11:26;8.70;99.90
9219;DHT22;4644;48.858;9.184;2023-04-19T05:13:53;8.70;99.90
9219;DHT22;4644;48.858;9.184;2023-04-19T05:16:20;8.80;99.90
9219;DHT22;4644;48.858;9.184;2023-04-19T05:18:47;8.90;99.90
9219;DHT22;4644;48.858;9.184;2023-04-19T05:21:14;9.00;99.90
9219;DHT22;4644;48.858;9.184;2023-04-19T05:23:43;9.10;99.90
9219;DHT22;4644;48.858;9.184;2023-04-19T05:26:10;9.20;99.90
9219;DHT22;4644;48.858;9.184;2023-04-19T05:28:40;9.20;99.90
9219;DHT22;4644;48.858;9.184;2023-04-19T05:31:07;9.20;99.90
9219;DHT22;4644;48.858;9.184;2023-04-19T05:33:35;9.30;99.90
9219;DHT22;4644;48.858;9.184;2023-04-19T05:36:02;9.30;99.90
9219;DHT22;4644;48.858;9.184;2023-04-19T05:38:29;9.20;99.90
9219;DHT22;4644;48.858;9.184;2023-04-19T05:40:57;9.20;99.90
9219;DHT22;4644;48.858;9.184;2023-04-19T05:43:24;9.20;99.90
9219;DHT22;4644;48.858;9.184;2023-04-19T05:45:51;9.30;99.90
9219;DHT22;4644;48.858;9.184;2023-04-19T05:48:18;9.30;99.90
9219;DHT22;4644;48.858;9.184;2023-04-19T05:50:45;9.30;99.90
9219;DHT22;4644;48.858;9.184;2023-04-19T05:53:12;9.30;99.90
9219;DHT22;4644;48.858;9.184;2023-04-19T05:55:39;9.40;99.90
9219;DHT22;4644;48.858;9.184;2023-04-19T05:58:08;9.40;99.90
9219;DHT22;4644;48.858;9.184;2023-04-19T06:00:35;9.50;99.90
9219;DHT22;4644;48.858;9.184;2023-04-19T06:03:02;9.50;99.90
9219;DHT22;4644;48.858;9.184;2023-04-19T06:05:30;9.60;99.90
9219;DHT22;4644;48.858;9.184;2023-04-19T06:07:57;9.70;99.90
9219;DHT22;4644;48.858;9.184;2023-04-19T06:10:24;9.70;99.90
9219;DHT22;4644;48.858;9.184;2023-04-19T06:12:51;9.70;99.90
9219;DHT22;4644;48.858;9.184;2023-04-19T06:15:19;9.70;99.90
9219;DHT22;4644;48.858;9.184;2023-04-19T06:17:47;9.80;99.90
9219;DHT22;4644;48.858;9.184;2023-04-19T06:20:14;9.90;99.90
9219;DHT22;4644;48.858;9.184;2023-04-19T06:22:41;10.00;99.90
9219;DHT22;4644;48.858;9.184;2023-04-19T06:25:09;10.00;99.90
9219;DHT22;4644;48.858;9.184;2023-04-19T06:27:36;10.00;99.90
9219;DHT22;4644;48.858;9.184;2023-04-19T06:30:04;10.00;99.90
9219;DHT22;4644;48.858;9.184;2023-04-19T06:32:33;10.00;99.90
9219;DHT22;4644;48.858;9.184;2023-04-19T06:35:00;10.10;99.90
9219;DHT22;4644;48.858;9.184;2023-04-19T06:37:26;10.10;99.90
9219;DHT22;4644;48.858;9.184;2023-04-19T06:39:53;10.30;99.90
9219;DHT22;4644;48.858;9.184;2023-04-19T06:42:20;10.50;99.90
9219;DHT22;4644;48.858;9.184;2023-04-19T06:44:49;10.60;99.90
9219;DHT22;4644;48.858;9.184;2023-04-19T06:47:16;10.70;99.90
9219;DHT22;4644;48.858;9.184;2023-04-19T06:49:45;10.90;99.90
9219;DHT22;4644;48.858;9.184;2023-04-19T06:52:12;10.90;99.90
9219;DHT22;4644;48.858;9.184;2023-04-19T06:54:39;11.10;99.90
9219;DHT22;4644;48.858;9.184;2023-04-19T06:57:06;11.20;99.90
9219;DHT22;4644;48.858;9.184;2023-04-19T06:59:33;11.30;99.90
9219;DHT22;4644;48.858;9.184;2023-04-19T07:02:04;11.50;99.90
9219;DHT22;4644;48.858;9.184;2023-04-19T07:04:31;11.70;99.90
9219;DHT22;4644;48.858;9.184;2023-04-19T07:06:59;11.70;99.90
9219;DHT22;4644;48.858;9.184;2023-04-19T07:09:27;11.80;99.90
9219;DHT22;4644;48.858;9.184;2023-04-19T07:11:54;11.80;99.90
9219;DHT22;4644;48.858;9.184;2023-04-19T07:14:21;11.90;99.90
9219;DHT22;4644;48.858;9.184;2023-04-19T07:16:49;12.00;99.90
9219;DHT22;4644;48.858;9.184;2023-04-19T07:19:18;12.10;99.90
9219;DHT22;4644;48.858;9.184;2023-04-19T07:21:45;12.10;99.90
9219;DHT22;4644;48.858;9.184;2023-04-19T07:24:14;12.10;99.90
9219;DHT22;4644;48.858;9.184;2023-04-19T07:26:41;12.00;99.90
9219;DHT22;4644;48.858;9.184;2023-04-19T07:29:08;12.00;99.90
9219;DHT22;4644;48.858;9.184;2023-04-19T07:31:35;11.90;99.90
9219;DHT22;4644;48.858;9.184;2023-04-19T07:34:03;12.00;99.90
9219;DHT22;4644;48.858;9.184;2023-04-19T07:36:30;12.10;99.90
9219;DHT22;4644;48.858;9.184;2023-04-19T07:38:59;12.20;99.90
9219;DHT22;4644;48.858;9.184;2023-04-19T07:41:28;12.30;99.90
9219;DHT22;4644;48.858;9.184;2023-04-19T07:43:55;12.40;99.90
9219;DHT22;4644;48.858;9.184;2023-04-19T07:46:22;12.40;99.90
9219;DHT22;4644;48.858;9.184;2023-04-19T07:48:49;12.60;99.90
9219;DHT22;4644;48.858;9.184;2023-04-19T07:51:16;12.90;99.90
9219;DHT22;4644;48.858;9.184;2023-04-19T07:53:45;13.30;99.90
9219;DHT22;4644;48.858;9.184;2023-04-19T07:56:12;13.60;99.90
9219;DHT22;4644;48.858;9.184;2023-04-19T07:58:41;14.20;99.90
9219;DHT22;4644;48.858;9.184;2023-04-19T08:01:08;14.70;99.90
9219;DHT22;4644;48.858;9.184;2023-04-19T08:03:36;14.90;99.90
9219;DHT22;4644;48.858;9.184;2023-04-19T08:06:04;14.90;99.90
9219;DHT22;4644;48.858;9.184;2023-04-19T08:08:32;14.80;99.90
9219;DHT22;4644;48.858;9.184;2023-04-19T08:10:59;14.50;99.90
9219;DHT22;4644;48.858;9.184;2023-04-19T08:13:27;14.20;99.90
9219;DHT22;4644;48.858;9.184;2023-04-19T08:15:56;14.00;99.90
9219;DHT22;4644;48.858;9.184;2023-04-19T08:18:23;13.50;99.90
9219;DHT22;4644;48.858;9.184;2023-04-19T08:20:51;13.20;99.90
9219;DHT22;4644;48.858;9.184;2023-04-19T08:23:18;12.80;99.90
9219;DHT22;4644;48.858;9.184;2023-04-19T08:25:45;12.60;99.90
9219;DHT22;4644;48.858;9.184;2023-04-19T08:28:12;12.50;99.90
9219;DHT22;4644;48.858;9.184;2023-04-19T08:30:39;12.40;99.90
9219;DHT22;4644;48.858;9.184;2023-04-19T08:33:08;12.30;99.90
9219;DHT22;4644;48.858;9.184;2023-04-19T08:35:36;12.30;99.90
9219;DHT22;4644;48.858;9.184;2023-04-19T08:38:03;12.40;99.90
9219;DHT22;4644;48.858;9.184;2023-04-19T08:40:30;12.40;99.90
9219;DHT22;4644;48.858;9.184;2023-04-19T08:42:57;12.50;99.90
9219;DHT22;4644;48.858;9.184;2023-04-19T08:45:26;12.60;99.90
9219;DHT22;4644;48.858;9.184;2023-04-19T08:47:53;12.60;99.90
9219;DHT22;4644;48.858;9.184;2023-04-19T08:50:22;12.60;99.90
9219;DHT22;4644;48.858;9.184;2023-04-19T08:52:50;12.50;99.90
9219;DHT22;4644;48.858;9.184;2023-04-19T08:55:17;12.50;99.90
9219;DHT22;4644;48.858;9.184;2023-04-19T08:57:44;12.40;99.90
9219;DHT22;4644;48.858;9.184;2023-04-19T09:00:12;12.50;99.90
9219;DHT22;4644;48.858;9.184;2023-04-19T09:02:47;12.50;99.90
9219;DHT22;4644;48.858;9.184;2023-04-19T09:05:15;12.60;99.90
9219;DHT22;4644;48.858;9.184;2023-04-19T09:07:44;12.70;99.90
9219;DHT22;4644;48.858;9.184;2023-04-19T09:10:14;12.70;99.90
9219;DHT22;4644;48.858;9.184;2023-04-19T09:12:42;12.90;99.90
9219;DHT22;4644;48.858;9.184;2023-04-19T09:15:09;13.00;99.90
9219;DHT22;4644;48.858;9.184;2023-04-19T09:17:38;13.10;99.90
9219;DHT22;4644;48.858;9.184;2023-04-19T09:20:06;13.10;99.90
9219;DHT22;4644;48.858;9.184;2023-04-19T09:22:33;13.20;99.90
9219;DHT22;4644;48.858;9.184;2023-04-19T09:25:01;13.30;99.90
9219;DHT22;4644;48.858;9.184;2023-04-19T09:27:30;13.40;99.90
9219;DHT22;4644;48.858;9.184;2023-04-19T09:29:58;13.60;99.90
9219;DHT22;4644;48.858;9.184;2023-04-19T09:32:26;13.80;99.90
9219;DHT22;4644;48.858;9.184;2023-04-19T09:34:54;14.20;99.90
9219;DHT22;4644;48.858;9.184;2023-04-19T09:37:22;14.70;99.90
9219;DHT22;4644;48.858;9.184;2023-04-19T09:39:49;15.10;99.90
9219;DHT22;4644;48.858;9.184;2023-04-19T09:42:18;15.40;99.90
9219;DHT22;4644;48.858;9.184;2023-04-19T09:44:55;15.70;99.90
9219;DHT22;4644;48.858;9.184;2023-04-19T09:47:23;15.90;99.90
9219;DHT22;4644;48.858;9.184;2023-04-19T09:50:05;15.70;99.90
9219;DHT22;4644;48.858;9.184;2023-04-19T09:52:32;15.90;99.90
9219;DHT22;4644;48.858;9.184;2023-04-19T09:55:00;15.70;99.90
9219;DHT22;4644;48.858;9.184;2023-04-19T09:57:30;15.50;99.90
9219;DHT22;4644;48.858;9.184;2023-04-19T09:59:59;14.90;99.90
9219;DHT22;4644;48.858;9.184;2023-04-19T10:02:30;14.40;99.90
9219;DHT22;4644;48.858;9.184;2023-04-19T10:04:57;14.20;99.90
9219;DHT22;4644;48.858;9.184;2023-04-19T10:07:26;14.10;99.90
9219;DHT22;4644;48.858;9.184;2023-04-19T10:09:54;13.70;99.90
9219;DHT22;4644;48.858;9.184;2023-04-19T10:12:24;13.60;99.90
9219;DHT22;4644;48.858;9.184;2023-04-19T10:14:55;13.40;99.90
9219;DHT22;4644;48.858;9.184;2023-04-19T10:17:23;13.20;99.90
9219;DHT22;4644;48.858;9.184;2023-04-19T10:19:58;13.10;99.90
9219;DHT22;4644;48.858;9.184;2023-04-19T10:22:29;13.20;99.90
9219;DHT22;4644;48.858;9.184;2023-04-19T10:25:13;13.20;99.90
9219;DHT22;4644;48.858;9.184;2023-04-19T10:27:41;13.20;99.90
9219;DHT22;4644;48.858;9.184;2023-04-19T10:30:17;13.20;99.90
9219;DHT22;4644;48.858;9.184;2023-04-19T10:32:46;13.20;99.90
9219;DHT22;4644;48.858;9.184;2023-04-19T10:35:18;13.10;99.90
9219;DHT22;4644;48.858;9.184;2023-04-19T10:38:04;13.10;99.90
9219;DHT22;4644;48.858;9.184;2023-04-19T10:41:02;13.20;99.90
9219;DHT22;4644;48.858;9.184;2023-04-19T10:43:30;13.30;99.90
9219;DHT22;4644;48.858;9.184;2023-04-19T10:46:05;13.50;99.90
9219;DHT22;4644;48.858;9.184;2023-04-19T10:48:37;13.70;99.90
9219;DHT22;4644;48.858;9.184;2023-04-19T10:51:14;14.00;99.90
9219;DHT22;4644;48.858;9.184;2023-04-19T10:53:48;14.10;99.90
9219;DHT22;4644;48.858;9.184;2023-04-19T10:56:16;14.20;99.90
9219;DHT22;4644;48.858;9.184;2023-04-19T10:59:14;14.10;99.90
9219;DHT22;4644;48.858;9.184;2023-04-19T11:01:59;14.00;99.90
9219;DHT22;4644;48.858;9.184;2023-04-19T11:05:00;13.80;99.90
9219;DHT22;4644;48.858;9.184;2023-04-19T11:07:44;13.50;99.90
9219;DHT22;4644;48.858;9.184;2023-04-19T11:10:11;13.40;99.90
9219;DHT22;4644;48.858;9.184;2023-04-19T11:12:41;13.20;99.90
9219;DHT22;4644;48.858;9.184;2023-04-19T11:15:09;13.10;99.90
9219;DHT22;4644;48.858;9.184;2023-04-19T11:17:37;13.00;99.90
9219;DHT22;4644;48.858;9.184;2023-04-19T11:20:06;12.80;99.90
9219;DHT22;4644;48.858;9.184;2023-04-19T11:22:36;12.60;99.90
9219;DHT22;4644;48.858;9.184;2023-04-19T11:25:08;12.50;99.90
9219;DHT22;4644;48.858;9.184;2023-04-19T11:27:37;12.30;99.90
9219;DHT22;4644;48.858;9.184;2023-04-19T11:30:06;12.10;99.90
9219;DHT22;4644;48.858;9.184;2023-04-19T11:32:34;12.00;99.90
9219;DHT22;4644;48.858;9.184;2023-04-19T11:35:07;12.00;99.90
9219;DHT22;4644;48.858;9.184;2023-04-19T11:37:35;11.80;99.90
9219;DHT22;4644;48.858;9.184;2023-04-19T11:40:02;11.60;99.90
9219;DHT22;4644;48.858;9.184;2023-04-19T11:42:31;11.40;99.90
9219;DHT22;4644;48.858;9.184;2023-04-19T11:44:58;11.30;99.90
9219;DHT22;4644;48.858;9.184;2023-04-19T11:47:25;11.30;99.90
9219;DHT22;4644;48.858;9.184;2023-04-19T11:49:53;11.00;99.90
9219;DHT22;4644;48.858;9.184;2023-04-19T11:52:24;11.00;99.90
9219;DHT22;4644;48.858;9.184;2023-04-19T11:54:51;10.90;99.90
9219;DHT22;4644;48.858;9.184;2023-04-19T11:57:29;10.90;99.90
9219;DHT22;4644;48.858;9.184;2023-04-19T12:00:04;10.90;99.90
9219;DHT22;4644;48.858;9.184;2023-04-19T12:02:44;10.80;99.90
9219;DHT22;4644;48.858;9.184;2023-04-19T12:05:14;10.70;99.90
9219;DHT22;4644;48.858;9.184;2023-04-19T12:08:03;10.70;99.90
9219;DHT22;4644;48.858;9.184;2023-04-19T12:10:30;10.60;99.90
9219;DHT22;4644;48.858;9.184;2023-04-19T12:12:58;10.60;99.90
9219;DHT22;4644;48.858;9.184;2023-04-19T12:15:40;10.50;99.90
9219;DHT22;4644;48.858;9.184;2023-04-19T12:18:07;10.40;99.90
9219;DHT22;4644;48.858;9.184;2023-04-19T12:20:36;10.30;99.90
9219;DHT22;4644;48.858;9.184;2023-04-19T12:23:05;10.20;99.90
9219;DHT22;4644;48.858;9.184;2023-04-19T12:25:36;10.20;99.90
9219;DHT22;4644;48.858;9.184;2023-04-19T12:28:03;10.10;99.90
9219;DHT22;4644;48.858;9.184;2023-04-19T12:30:30;10.10;99.90
9219;DHT22;4644;48.858;9.184;2023-04-19T12:32:58;10.20;99.90
9219;DHT22;4644;48.858;9.184;2023-04-19T12:35:26;10.20;99.90
9219;DHT22;4644;48.858;9.184;2023-04-19T12:37:54;10.20;99.90
9219;DHT22;4644;48.858;9.184;2023-04-19T12:40:23;10.20;99.90
9219;DHT22;4644;48.858;9.184;2023-04-19T12:42:51;10.20;99.90
9219;DHT22;4644;48.858;9.184;2023-04-19T12:45:18;10.20;99.90
9219;DHT22;4644;48.858;9.184;2023-04-19T12:47:46;10.10;99.90
9219;DHT22;4644;48.858;9.184;2023-04-19T12:50:14;10.10;99.90
9219;DHT22;4644;48.858;9.184;2023-04-19T12:52:41;10.10;99.90
9219;DHT22;4644;48.858;9.184;2023-04-19T12:55:09;10.10;99.90
9219;DHT22;4644;48.858;9.184;2023-04-19T12:57:38;10.10;99.90
9219;DHT22;4644;48.858;9.184;2023-04-19T13:00:08;10.10;99.90
9219;DHT22;4644;48.858;9.184;2023-04-19T13:02:37;10.20;99.90
9219;DHT22;4644;48.858;9.184;2023-04-19T13:05:04;10.10;99.90
9219;DHT22;4644;48.858;9.184;2023-04-19T13:07:32;10.10;99.90
9219;DHT22;4644;48.858;9.184;2023-04-19T13:09:59;10.10;99.90
9219;DHT22;4644;48.858;9.184;2023-04-19T13:12:28;10.10;99.90
9219;DHT22;4644;48.858;9.184;2023-04-19T13:14:58;10.20;99.90
9219;DHT22;4644;48.858;9.184;2023-04-19T13:17:25;10.20;99.90
9219;DHT22;4644;48.858;9.184;2023-04-19T13:19:52;10.20;99.90
9219;DHT22;4644;48.858;9.184;2023-04-19T13:22:20;10.20;99.90
9219;DHT22;4644;48.858;9.184;2023-04-19T13:24:48;10.30;99.90
9219;DHT22;4644;48.858;9.184;2023-04-19T13:27:16;10.40;99.90
9219;DHT22;4644;48.858;9.184;2023-04-19T13:29:43;10.40;99.90
9219;DHT22;4644;48.858;9.184;2023-04-19T13:32:12;10.40;99.90
9219;DHT22;4644;48.858;9.184;2023-04-19T13:34:39;10.30;99.90
9219;DHT22;4644;48.858;9.184;2023-04-19T13:37:06;10.40;99.90
9219;DHT22;4644;48.858;9.184;2023-04-19T13:39:33;10.50;99.90
9219;DHT22;4644;48.858;9.184;2023-04-19T13:42:00;10.60;99.90
9219;DHT22;4644;48.858;9.184;2023-04-19T13:44:28;10.70;99.90
9219;DHT22;4644;48.858;9.184;2023-04-19T13:46:55;10.70;99.90
9219;DHT22;4644;48.858;9.184;2023-04-19T13:49:23;10.70;99.90
9219;DHT22;4644;48.858;9.184;2023-04-19T13:51:51;10.80;99.90
9219;DHT22;4644;48.858;9.184;2023-04-19T13:54:18;10.80;99.90
9219;DHT22;4644;48.858;9.184;2023-04-19T13:56:47;10.90;99.90
9219;DHT22;4644;48.858;9.184;2023-04-19T13:59:14;11.00;99.90
9219;DHT22;4644;48.858;9.184;2023-04-19T14:01:41;11.20;99.90
9219;DHT22;4644;48.858;9.184;2023-04-19T14:04:08;11.40;99.90
9219;DHT22;4644;48.858;9.184;2023-04-19T14:06:36;11.50;99.90
9219;DHT22;4644;48.858;9.184;2023-04-19T14:09:03;11.70;99.90
9219;DHT22;4644;48.858;9.184;2023-04-19T14:11:32;11.80;99.90
9219;DHT22;4644;48.858;9.184;2023-04-19T14:14:00;11.80;99.90
9219;DHT22;4644;48.858;9.184;2023-04-19T14:16:27;11.70;99.90
9219;DHT22;4644;48.858;9.184;2023-04-19T14:18:54;11.90;99.90
9219;DHT22;4644;48.858;9.184;2023-04-19T14:21:21;11.90;99.90
9219;DHT22;4644;48.858;9.184;2023-04-19T14:24:00;11.90;99.90
9219;DHT22;4644;48.858;9.184;2023-04-19T14:26:26;11.80;99.90
9219;DHT22;4644;48.858;9.184;2023-04-19T14:28:54;11.80;99.90
9219;DHT22;4644;48.858;9.184;2023-04-19T14:31:23;11.80;99.90
9219;DHT22;4644;48.858;9.184;2023-04-19T14:33:50;11.80;99.90
9219;DHT22;4644;48.858;9.184;2023-04-19T14:36:17;11.90;99.90
9219;DHT22;4644;48.858;9.184;2023-04-19T14:38:43;12.00;99.90
9219;DHT22;4644;48.858;9.184;2023-04-19T14:41:12;11.90;99.90
9219;DHT22;4644;48.858;9.184;2023-04-19T14:43:39;11.90;99.90
9219;DHT22;4644;48.858;9.184;2023-04-19T14:46:06;11.90;99.90
9219;DHT22;4644;48.858;9.184;2023-04-19T14:48:33;11.90;99.90
9219;DHT22;4644;48.858;9.184;2023-04-19T14:51:00;11.90;99.90
9219;DHT22;4644;48.858;9.184;2023-04-19T14:53:27;11.70;99.90
9219;DHT22;4644;48.858;9.184;2023-04-19T14:55:54;11.50;99.90
9219;DHT22;4644;48.858;9.184;2023-04-19T14:58:23;11.50;99.90
9219;DHT22;4644;48.858;9.184;2023-04-19T15:00:50;11.40;99.90
9219;DHT22;4644;48.858;9.184;2023-04-19T15:03:18;11.40;99.90
9219;DHT22;4644;48.858;9.184;2023-04-19T15:05:45;11.30;99.90
9219;DHT22;4644;48.858;9.184;2023-04-19T15:08:12;11.30;99.90
9219;DHT22;4644;48.858;9.184;2023-04-19T15:10:40;11.40;99.90
9219;DHT22;4644;48.858;9.184;2023-04-19T15:13:07;11.50;99.90
9219;DHT22;4644;48.858;9.184;2023-04-19T15:15:35;11.40;99.90
9219;DHT22;4644;48.858;9.184;2023-04-19T15:18:03;11.30;99.90
9219;DHT22;4644;48.858;9.184;2023-04-19T15:20:30;11.30;99.90
9219;DHT22;4644;48.858;9.184;2023-04-19T15:22:59;11.30;99.90
9219;DHT22;4644;48.858;9.184;2023-04-19T15:25:27;11.30;99.90
9219;DHT22;4644;48.858;9.184;2023-04-19T15:27:55;11.30;99.90
9219;DHT22;4644;48.858;9.184;2023-04-19T15:30:22;11.30;99.90
9219;DHT22;4644;48.858;9.184;2023-04-19T15:32:51;11.30;99.90
9219;DHT22;4644;48.858;9.184;2023-04-19T15:35:18;11.40;99.90
9219;DHT22;4644;48.858;9.184;2023-04-19T15:37:46;11.60;99.90
9219;DHT22;4644;48.858;9.184;2023-04-19T15:40:13;11.80;99.90
9219;DHT22;4644;48.858;9.184;2023-04-19T15:42:42;12.00;99.90
9219;DHT22;4644;48.858;9.184;2023-04-19T15:45:10;12.00;99.90
9219;DHT22;4644;48.858;9.184;2023-04-19T15:47:38;12.30;99.90
9219;DHT22;4644;48.858;9.184;2023-04-19T15:50:08;12.30;99.90
9219;DHT22;4644;48.858;9.184;2023-04-19T15:52:35;12.40;99.90
9219;DHT22;4644;48.858;9.184;2023-04-19T15:55:02;12.50;99.90
9219;DHT22;4644;48.858;9.184;2023-04-19T15:57:30;12.30;99.90
9219;DHT22;4644;48.858;9.184;2023-04-19T15:59:57;12.40;99.90
9219;DHT22;4644;48.858;9.184;2023-04-19T16:02:24;12.50;99.90
9219;DHT22;4644;48.858;9.184;2023-04-19T16:04:51;12.50;99.90
9219;DHT22;4644;48.858;9.184;2023-04-19T16:07:20;12.70;99.90
9219;DHT22;4644;48.858;9.184;2023-04-19T16:09:47;12.80;99.90
9219;DHT22;4644;48.858;9.184;2023-04-19T16:12:14;12.90;99.90
9219;DHT22;4644;48.858;9.184;2023-04-19T16:14:41;12.80;99.90